Airfield :
LOGIN :

Register | Disclaimer

   EN    FR    IT 

 










Legend :    VFR   Marginal VFR   IFR   Intensive IFR   Very Intensive IFR
Visi :
Ceiling :
>= 8 km
>= 3000ft
5 to 8 km
1000 to 3000 ft
1500m to 5 km
500 to 1000 ft
800 to 1500m
200 to 500 ft
< 800m
< 200 ft
Symbols :   Thunderstorms  Fog  Heavy snow  Heavy precipitations  Wind > 20 kt
SIGMETs :     Misc.  Thunderstorms  Icing  Turbulence  Mountain Waves  Volcanic Ashes






- Airport Elevation : 226 ft
- IATA code : BEX


EGUB - RAF Benson

CURRENT METAR :
  • 270940Z 19007KT 9999 SCT029 OVC037 08/08 Q1011 TEMPO 5000 -DZ SCT006 RMK BLU TEMPO YLO1

EXPIRED METARs :
  • 270919Z 18005KT 5000 BR FEW006 OVC029 08/08 Q1011 TEMPO 3000 SCT006 RMK WHT TEMPO YLO1
  • 270850Z 20002KT 2600 DZ SCT005 OVC031 07/07 Q1011 TEMPO 4000 FEW005 RMK YLO1 TEMPO GRN
  • 270819Z 16002KT 3000 -DZ SCT007 OVC034 07/07 Q1011 TEMPO 5000 BR SCT006 RMK YLO1 TEMPO YLO1
  • 270750Z 36001KT 5000 BR BKN007 OVC045 06/06 Q1011 BECMG SCT006 RMK GRN BECMG YLO1
  • 270720Z 14002KT 4500 BR OVC044 06/06 Q1010 RMK GRN
  • 270650Z AUTO 11002KT 4200 // FEW004/// OVC048/// 06/06 Q1010

Expired Forecast.
ATIS : +44 1491-837766 (x7524)



MET'MAP, your aeronautical weather chart ! - Copyright ORBIFLY December 2007 - Disclaimer

ORBIFLY MET'MAP TEAM :

Programming & Development : Alexandra Zaïnal
Concept & original design : Baudouin d'Aumeries
Assistance for programming : Marc-Olivier Méhu
Technical & hardware support : Manuel Goepfert

Contact : metmap@orbifly.com




SOURCES & CREDITS :

   NOAA